createdAt,value
2022-11-20T00:00:56.341Z,2.14
2022-11-20T00:03:24.592Z,2.24
2022-11-20T00:05:52.308Z,2.24
2022-11-20T00:08:19.966Z,2.33
2022-11-20T00:10:47.715Z,2.36
2022-11-20T00:13:16.711Z,2.39
2022-11-20T00:15:44.463Z,2.36
2022-11-20T00:18:12.226Z,2.29
2022-11-20T00:20:39.914Z,2.23
2022-11-20T00:23:07.940Z,2.22
2022-11-20T00:25:36.533Z,2.28
2022-11-20T00:28:04.362Z,2.24
2022-11-20T00:30:33.730Z,2.31
2022-11-20T00:33:01.491Z,2.26
2022-11-20T00:35:29.242Z,2.23
2022-11-20T00:37:56.938Z,2.30
2022-11-20T00:40:24.662Z,2.40
2022-11-20T00:42:52.369Z,2.47
2022-11-20T00:45:20.120Z,2.52
2022-11-20T00:47:49.422Z,2.41
2022-11-20T00:50:17.115Z,2.37
2022-11-20T00:52:44.930Z,2.23
2022-11-20T00:55:12.628Z,2.22
2022-11-20T00:57:40.349Z,2.29
2022-11-20T01:00:09.143Z,2.27
2022-11-20T01:02:36.911Z,2.18
2022-11-20T01:05:06.259Z,2.13
2022-11-20T01:07:34.283Z,2.16
2022-11-20T01:10:02.049Z,2.11
2022-11-20T01:12:29.739Z,2.07
2022-11-20T01:14:57.459Z,2.05
2022-11-20T01:17:25.220Z,2.06
2022-11-20T01:19:52.876Z,2.10
2022-11-20T01:22:22.234Z,2.04
2022-11-20T01:24:49.954Z,2.10
2022-11-20T01:27:17.839Z,2.17
2022-11-20T01:29:45.642Z,2.22
2022-11-20T01:32:13.368Z,2.23
2022-11-20T01:34:41.087Z,2.26
2022-11-20T01:37:08.784Z,2.23
2022-11-20T01:39:37.868Z,2.25
2022-11-20T01:42:23.295Z,2.20
2022-11-20T01:44:58.288Z,2.33
2022-11-20T01:47:34.054Z,2.38
2022-11-20T01:50:04.960Z,2.40
2022-11-20T01:52:36.603Z,2.31
2022-11-20T01:55:09.419Z,2.34
2022-11-20T01:57:37.760Z,2.31
2022-11-20T02:00:09.599Z,2.20
2022-11-20T02:02:48.700Z,2.25
2022-11-20T02:05:24.660Z,2.29
2022-11-20T02:07:52.860Z,2.30
2022-11-20T02:10:22.744Z,2.31
2022-11-20T02:13:08.191Z,2.34
2022-11-20T02:15:35.834Z,2.32
2022-11-20T02:18:03.887Z,2.30
2022-11-20T02:20:32.091Z,2.23
2022-11-20T02:23:04.073Z,2.16
2022-11-20T02:25:35.771Z,2.16
2022-11-20T02:28:04.851Z,2.14
2022-11-20T02:30:32.600Z,2.08
2022-11-20T02:33:00.459Z,2.03
2022-11-20T02:35:46.386Z,1.91
2022-11-20T02:38:15.691Z,1.84
2022-11-20T02:40:45.301Z,1.89
2022-11-20T02:43:13.257Z,1.92
2022-11-20T02:45:41.112Z,1.94
2022-11-20T02:48:09.619Z,2.01
2022-11-20T02:50:40.384Z,2.03
2022-11-20T02:53:08.744Z,2.10
2022-11-20T02:55:37.181Z,2.13
2022-11-20T02:58:06.424Z,2.14
2022-11-20T03:00:34.598Z,2.23
2022-11-20T03:03:02.461Z,2.14
2022-11-20T03:05:30.203Z,2.12
2022-11-20T03:07:57.951Z,2.14
2022-11-20T03:10:25.774Z,2.17
2022-11-20T03:12:56.293Z,2.21
2022-11-20T03:15:26.333Z,2.30
2022-11-20T03:17:55.891Z,2.33
2022-11-20T03:20:23.932Z,2.27
2022-11-20T03:22:52.009Z,2.26
2022-11-20T03:25:19.852Z,2.24
2022-11-20T03:27:47.598Z,2.21
2022-11-20T03:30:16.101Z,2.23
2022-11-20T03:32:45.329Z,2.21
2022-11-20T03:35:13.182Z,2.18
2022-11-20T03:37:40.934Z,2.22
2022-11-20T03:40:09.721Z,2.26
2022-11-20T03:42:49.683Z,2.16
2022-11-20T03:45:18.947Z,2.20
2022-11-20T03:47:48.262Z,2.10
2022-11-20T03:50:16.293Z,2.10
2022-11-20T03:52:44.498Z,2.12
2022-11-20T03:55:12.330Z,2.11
2022-11-20T03:57:40.073Z,2.13
2022-11-20T04:00:08.887Z,2.13
2022-11-20T04:02:36.816Z,2.15
2022-11-20T04:05:06.569Z,2.12
2022-11-20T04:07:36.515Z,2.18
2022-11-20T04:10:04.980Z,2.18
2022-11-20T04:12:34.525Z,2.22
2022-11-20T04:15:02.396Z,2.17
2022-11-20T04:17:30.157Z,2.25
2022-11-20T04:19:57.886Z,2.27
2022-11-20T04:22:27.462Z,2.20
2022-11-20T04:24:55.251Z,2.20
2022-11-20T04:27:23.133Z,2.16
2022-11-20T04:29:50.898Z,2.15
2022-11-20T04:32:18.715Z,2.09
2022-11-20T04:34:46.618Z,2.15
2022-11-20T04:37:14.393Z,2.16
2022-11-20T04:39:43.607Z,2.14
2022-11-20T04:42:29.464Z,2.14
2022-11-20T04:44:57.692Z,2.16
2022-11-20T04:47:25.632Z,2.18
2022-11-20T04:49:53.535Z,2.14
2022-11-20T04:52:21.509Z,2.11
2022-11-20T04:54:53.705Z,2.13
2022-11-20T04:57:21.773Z,2.16
2022-11-20T04:59:49.556Z,2.12
2022-11-20T05:02:17.425Z,2.15
2022-11-20T05:04:45.238Z,2.13
2022-11-20T05:07:13.114Z,2.19
2022-11-20T05:09:41.008Z,2.17
2022-11-20T05:12:11.081Z,2.17
2022-11-20T05:14:39.065Z,2.22
2022-11-20T05:17:06.958Z,2.22
2022-11-20T05:19:34.747Z,2.28
2022-11-20T05:22:02.532Z,2.32
2022-11-20T05:24:30.280Z,2.27
2022-11-20T05:26:58.026Z,2.28
2022-11-20T05:29:27.218Z,2.35
2022-11-20T05:31:55.031Z,2.41
2022-11-20T05:34:22.814Z,2.37
2022-11-20T05:36:50.660Z,2.41
2022-11-20T05:39:18.622Z,2.41
2022-11-20T05:41:46.470Z,2.38
2022-11-20T05:44:14.467Z,2.35
2022-11-20T05:46:43.662Z,2.35
2022-11-20T05:49:11.637Z,2.33
2022-11-20T05:51:39.710Z,2.31
2022-11-20T05:54:07.441Z,2.29
2022-11-20T05:56:35.203Z,2.26
2022-11-20T05:59:03.104Z,2.23
2022-11-20T06:01:30.893Z,2.23
2022-11-20T06:04:00.094Z,2.22
2022-11-20T06:06:27.960Z,2.20
2022-11-20T06:08:56.627Z,2.24
2022-11-20T06:11:24.567Z,2.25
2022-11-20T06:13:52.767Z,2.23
2022-11-20T06:16:22.693Z,2.23
2022-11-20T06:18:50.446Z,2.26
2022-11-20T06:21:21.509Z,2.28
2022-11-20T06:23:49.891Z,2.17
2022-11-20T06:26:20.395Z,2.25
2022-11-20T06:28:48.764Z,2.28
2022-11-20T06:31:19.023Z,2.24
2022-11-20T06:33:47.310Z,2.24
2022-11-20T06:36:16.888Z,2.29
2022-11-20T06:38:46.641Z,2.30
2022-11-20T06:41:16.479Z,2.31
2022-11-20T06:43:44.773Z,2.30
2022-11-20T06:46:14.447Z,2.23
2022-11-20T06:48:42.585Z,2.24
2022-11-20T06:51:11.163Z,2.29
2022-11-20T06:53:39.266Z,2.33
2022-11-20T06:56:09.812Z,2.32
2022-11-20T06:58:38.748Z,2.33
2022-11-20T07:01:08.313Z,2.31
2022-11-20T07:03:37.565Z,2.24
2022-11-20T07:06:06.310Z,2.20
2022-11-20T07:08:34.846Z,2.26
2022-11-20T07:11:04.372Z,2.33
2022-11-20T07:13:33.939Z,2.34
2022-11-20T07:16:03.159Z,2.37
2022-11-20T07:18:31.103Z,2.44
2022-11-20T07:21:02.943Z,2.45
2022-11-20T07:23:30.742Z,2.47
2022-11-20T07:25:58.693Z,2.56
2022-11-20T07:28:26.497Z,2.61
2022-11-20T07:30:55.776Z,2.60
2022-11-20T07:33:23.574Z,2.59
2022-11-20T07:35:51.458Z,2.59
2022-11-20T07:38:19.261Z,2.63
2022-11-20T07:40:47.023Z,2.62
2022-11-20T07:43:15.037Z,2.57
2022-11-20T07:45:43.902Z,2.61
2022-11-20T07:48:13.058Z,2.66
2022-11-20T07:50:40.935Z,2.66
2022-11-20T07:53:09.055Z,2.71
2022-11-20T07:55:37.090Z,2.72
2022-11-20T07:58:05.450Z,2.71
2022-11-20T08:00:33.499Z,2.82
2022-11-20T08:03:01.324Z,2.86
2022-11-20T08:05:30.570Z,2.95
2022-11-20T08:07:58.404Z,2.95
2022-11-20T08:10:26.300Z,2.97
2022-11-20T08:13:12.517Z,3.04
2022-11-20T08:15:41.782Z,3.17
2022-11-20T08:21:04.476Z,3.15
2022-11-20T08:23:32.387Z,3.25
2022-11-20T08:26:00.140Z,3.14
2022-11-20T08:28:27.950Z,3.23
2022-11-20T08:31:00.997Z,3.34
2022-11-20T08:33:28.896Z,3.31
2022-11-20T08:36:02.216Z,3.34
2022-11-20T08:38:30.566Z,3.38
2022-11-20T08:41:16.713Z,3.38
2022-11-20T08:43:44.572Z,3.41
2022-11-20T08:46:12.372Z,3.43
2022-11-20T08:48:40.160Z,3.57
2022-11-20T08:51:09.430Z,3.58
2022-11-20T08:53:37.169Z,3.66
2022-11-20T08:56:05.204Z,3.83
2022-11-20T08:58:43.834Z,4.07
2022-11-20T09:01:22.080Z,4.36
2022-11-20T09:03:49.969Z,4.15
2022-11-20T09:06:20.040Z,4.06
2022-11-20T09:08:47.768Z,4.05
2022-11-20T09:11:15.755Z,3.99
2022-11-20T09:13:43.526Z,4.01
2022-11-20T09:16:11.564Z,3.94
2022-11-20T09:18:39.725Z,3.96
2022-11-20T09:21:11.660Z,3.91
2022-11-20T09:23:41.272Z,4.06
2022-11-20T09:26:11.777Z,4.11
2022-11-20T09:28:39.859Z,4.13
2022-11-20T09:31:08.100Z,4.08
2022-11-20T09:33:35.879Z,4.19
2022-11-20T09:36:03.674Z,4.20
2022-11-20T09:38:31.490Z,4.09
2022-11-20T09:41:06.078Z,4.14
2022-11-20T09:43:48.288Z,4.23
2022-11-20T09:46:22.917Z,4.14
2022-11-20T09:49:13.953Z,4.20
2022-11-20T09:51:53.400Z,4.02
2022-11-20T09:54:23.516Z,4.14
2022-11-20T09:56:58.526Z,3.90
2022-11-20T09:59:36.242Z,4.04
2022-11-20T10:02:08.757Z,4.06
2022-11-20T10:04:41.596Z,4.12
2022-11-20T10:07:33.462Z,4.24
2022-11-20T10:10:01.840Z,4.26
2022-11-20T10:12:42.608Z,4.27
2022-11-20T10:15:21.780Z,4.49
2022-11-20T10:18:11.538Z,4.38
2022-11-20T10:20:48.528Z,4.69
2022-11-20T10:23:46.932Z,4.76
2022-11-20T10:26:23.628Z,4.73
2022-11-20T10:29:08.521Z,4.82
2022-11-20T10:31:39.586Z,5.11
2022-11-20T10:34:16.885Z,5.26
2022-11-20T10:36:52.594Z,5.08
2022-11-20T10:39:29.087Z,4.87
2022-11-20T10:41:58.113Z,4.96
2022-11-20T10:44:51.277Z,4.81
2022-11-20T10:47:23.123Z,4.93
2022-11-20T10:49:55.076Z,5.01
2022-11-20T10:52:32.417Z,5.12
2022-11-20T10:55:12.726Z,5.04
2022-11-20T10:57:53.229Z,4.99
2022-11-20T11:00:23.398Z,4.87
2022-11-20T11:02:52.694Z,4.76
2022-11-20T11:05:33.915Z,4.75
2022-11-20T11:08:01.842Z,4.64
2022-11-20T11:10:38.381Z,4.68
2022-11-20T11:13:06.241Z,4.73
2022-11-20T11:15:41.539Z,4.62
2022-11-20T11:18:11.980Z,4.57
2022-11-20T11:20:40.224Z,4.58
2022-11-20T11:23:33.795Z,4.56
2022-11-20T11:26:03.772Z,4.77
2022-11-20T11:28:31.758Z,4.83
2022-11-20T11:31:02.151Z,4.84
2022-11-20T11:33:31.862Z,4.85
2022-11-20T11:36:02.773Z,4.99
2022-11-20T11:38:35.276Z,5.06
2022-11-20T11:41:04.439Z,5.35
2022-11-20T11:43:53.090Z,5.27
2022-11-20T11:46:32.581Z,5.45
2022-11-20T11:49:01.961Z,5.22
2022-11-20T11:51:38.309Z,5.20
2022-11-20T11:54:17.664Z,5.14
2022-11-20T11:56:46.685Z,4.95
2022-11-20T11:59:24.567Z,4.86
2022-11-20T12:01:59.329Z,4.85
2022-11-20T12:04:42.351Z,4.80
2022-11-20T12:07:44.361Z,4.80
2022-11-20T12:10:05.122Z,4.76
2022-11-20T12:12:39.229Z,4.73
2022-11-20T12:15:13.820Z,4.69
2022-11-20T12:17:42.925Z,4.70
2022-11-20T12:20:15.072Z,4.61
2022-11-20T12:22:52.543Z,4.72
2022-11-20T12:25:25.086Z,4.71
2022-11-20T12:28:18.102Z,4.83
2022-11-20T12:30:54.334Z,4.99
2022-11-20T12:33:41.211Z,4.98
2022-11-20T12:36:19.988Z,4.91
2022-11-20T12:39:00.471Z,5.04
2022-11-20T12:42:10.484Z,5.19
2022-11-20T12:45:12.969Z,5.22
2022-11-20T12:48:00.400Z,5.25
2022-11-20T12:51:08.121Z,5.33
2022-11-20T12:53:39.924Z,5.18
2022-11-20T12:56:21.103Z,5.20
2022-11-20T12:59:00.068Z,5.18
2022-11-20T13:01:45.084Z,5.17
2022-11-20T13:04:34.034Z,5.34
2022-11-20T13:07:04.869Z,5.40
2022-11-20T13:09:34.696Z,5.30
2022-11-20T13:12:08.527Z,5.29
2022-11-20T13:14:42.994Z,5.36
2022-11-20T13:17:19.225Z,5.32
2022-11-20T13:19:51.904Z,5.25
2022-11-20T13:22:28.535Z,5.29
2022-11-20T13:24:57.241Z,5.25
2022-11-20T13:27:26.116Z,5.32
2022-11-20T13:30:18.232Z,5.47
2022-11-20T13:32:54.923Z,5.51
2022-11-20T13:35:32.072Z,5.66
2022-11-20T13:38:07.776Z,5.60
2022-11-20T13:40:37.625Z,5.62
2022-11-20T13:43:23.364Z,5.58
2022-11-20T13:46:02.192Z,5.55
2022-11-20T13:48:34.185Z,5.49
2022-11-20T13:51:23.588Z,5.50
2022-11-20T13:54:18.911Z,5.48
2022-11-20T13:57:00.533Z,5.53
2022-11-20T13:59:42.347Z,5.57
2022-11-20T14:02:15.118Z,5.65
2022-11-20T14:04:47.052Z,5.72
2022-11-20T14:07:15.104Z,5.67
2022-11-20T14:09:53.204Z,5.74
2022-11-20T14:12:24.810Z,5.73
2022-11-20T14:14:55.390Z,5.62
2022-11-20T14:17:26.315Z,5.67
2022-11-20T14:19:55.873Z,5.68
2022-11-20T14:22:25.074Z,5.63
2022-11-20T14:25:06.748Z,5.59
2022-11-20T14:27:38.302Z,5.56
2022-11-20T14:30:07.212Z,5.60
2022-11-20T14:32:37.399Z,5.63
2022-11-20T14:35:11.499Z,5.68
2022-11-20T14:37:42.208Z,5.65
2022-11-20T14:40:28.443Z,5.63
2022-11-20T14:42:56.810Z,5.64
2022-11-20T14:45:25.596Z,5.68
2022-11-20T14:47:54.191Z,5.67
2022-11-20T14:50:25.377Z,5.70
2022-11-20T14:52:55.005Z,5.68
2022-11-20T14:55:32.820Z,5.69
2022-11-20T14:58:02.536Z,5.69
2022-11-20T15:00:32.022Z,5.70
2022-11-20T15:03:00.098Z,5.70
2022-11-20T15:05:46.591Z,5.69
2022-11-20T15:08:15.552Z,5.68
2022-11-20T15:10:50.477Z,5.73
2022-11-20T15:13:26.707Z,5.67
2022-11-20T15:15:56.918Z,5.67
2022-11-20T15:18:29.031Z,5.69
2022-11-20T15:20:58.063Z,5.69
2022-11-20T15:23:29.594Z,5.74
2022-11-20T15:25:58.789Z,5.74
2022-11-20T15:28:33.360Z,5.78
2022-11-20T15:31:03.180Z,5.78
2022-11-20T15:33:31.638Z,5.77
2022-11-20T15:35:59.443Z,5.74
2022-11-20T15:38:27.508Z,5.70
2022-11-20T15:40:55.279Z,5.72
2022-11-20T15:43:24.444Z,5.73
2022-11-20T15:45:55.179Z,5.72
2022-11-20T15:48:25.331Z,5.76
2022-11-20T15:50:58.666Z,5.74
2022-11-20T15:53:26.521Z,5.71
2022-11-20T15:55:54.261Z,5.75
2022-11-20T15:58:25.268Z,5.75
2022-11-20T16:00:53.042Z,5.75
2022-11-20T16:03:21.616Z,5.79
2022-11-20T16:05:49.368Z,5.80
2022-11-20T16:08:17.182Z,5.81
2022-11-20T16:10:44.991Z,5.79
2022-11-20T16:13:34.425Z,5.80
2022-11-20T16:16:07.152Z,5.80
2022-11-20T16:18:35.485Z,5.77
2022-11-20T16:21:03.308Z,5.75
2022-11-20T16:23:31.064Z,5.74
2022-11-20T16:25:58.846Z,5.72
2022-11-20T16:28:26.639Z,5.72
2022-11-20T16:30:54.369Z,5.73
2022-11-20T16:33:23.531Z,5.70
2022-11-20T16:35:51.643Z,5.66
2022-11-20T16:38:19.853Z,5.68
2022-11-20T16:40:47.602Z,5.69
2022-11-20T16:43:16.071Z,5.71
2022-11-20T16:45:45.344Z,5.69
2022-11-20T16:48:17.814Z,5.59
2022-11-20T16:50:52.391Z,5.61
2022-11-20T16:53:21.263Z,5.61
2022-11-20T16:55:49.766Z,5.57
2022-11-20T16:58:17.729Z,5.60
2022-11-20T17:00:51.456Z,5.52
2022-11-20T17:03:20.886Z,5.47
2022-11-20T17:05:50.518Z,5.51
2022-11-20T17:08:18.353Z,5.45
2022-11-20T17:10:46.107Z,5.49
2022-11-20T17:13:13.828Z,5.48
2022-11-20T17:15:42.041Z,5.45
2022-11-20T17:18:09.929Z,5.49
2022-11-20T17:20:37.699Z,5.50
2022-11-20T17:23:06.818Z,5.52
2022-11-20T17:25:35.242Z,5.44
2022-11-20T17:28:02.996Z,5.39
2022-11-20T17:30:31.434Z,5.43
2022-11-20T17:32:59.259Z,5.40
2022-11-20T17:35:27.086Z,5.38
2022-11-20T17:37:55.041Z,5.39
2022-11-20T17:40:27.348Z,5.38
2022-11-20T17:42:56.062Z,5.38
2022-11-20T17:45:23.888Z,5.36
2022-11-20T17:47:51.656Z,5.39
2022-11-20T17:50:19.963Z,5.37
2022-11-20T17:52:48.046Z,5.34
2022-11-20T17:55:16.026Z,5.36
2022-11-20T17:58:02.188Z,5.35
2022-11-20T18:00:31.609Z,5.34
2022-11-20T18:02:59.391Z,5.39
2022-11-20T18:05:27.739Z,5.45
2022-11-20T18:07:55.576Z,5.46
2022-11-20T18:10:23.404Z,5.48
2022-11-20T18:12:53.871Z,5.49
2022-11-20T18:15:21.771Z,5.51
2022-11-20T18:17:49.642Z,5.51
2022-11-20T18:20:29.424Z,5.54
2022-11-20T18:22:58.497Z,5.56
2022-11-20T18:25:26.272Z,5.54
2022-11-20T18:27:56.340Z,5.55
2022-11-20T18:30:24.324Z,5.59
2022-11-20T18:32:52.269Z,5.60
2022-11-20T18:35:19.979Z,5.62
2022-11-20T18:37:47.942Z,5.60
2022-11-20T18:40:15.776Z,5.69
2022-11-20T18:43:01.183Z,5.66
2022-11-20T18:45:30.376Z,5.66
2022-11-20T18:47:59.233Z,5.70
2022-11-20T18:50:27.011Z,5.72
2022-11-20T18:52:54.944Z,5.80
2022-11-20T18:55:25.060Z,5.78
2022-11-20T18:57:53.939Z,5.79
2022-11-20T19:00:21.899Z,5.86
2022-11-20T19:02:54.096Z,5.87
2022-11-20T19:05:21.912Z,5.85
2022-11-20T19:07:49.716Z,5.88
2022-11-20T19:10:20.172Z,5.92
2022-11-20T19:12:48.015Z,5.97
2022-11-20T19:15:15.862Z,6.02
2022-11-20T19:17:43.645Z,6.07
2022-11-20T19:20:13.499Z,6.09
2022-11-20T19:22:41.426Z,6.15
2022-11-20T19:25:10.154Z,6.20
2022-11-20T19:27:38.329Z,6.33
2022-11-20T19:30:07.131Z,6.42
2022-11-20T19:32:35.296Z,6.47
2022-11-20T19:35:03.651Z,6.48
2022-11-20T19:37:35.249Z,6.44
2022-11-20T19:40:04.570Z,6.53
2022-11-20T19:42:32.961Z,6.56
2022-11-20T19:45:00.803Z,6.58
2022-11-20T19:47:52.632Z,6.58
2022-11-20T19:50:16.982Z,6.63
2022-11-20T19:52:46.406Z,6.66
2022-11-20T19:55:14.421Z,6.63
2022-11-20T19:57:42.504Z,6.64
2022-11-20T20:00:12.229Z,6.63
2022-11-20T20:02:40.045Z,6.63
2022-11-20T20:05:08.651Z,6.74
2022-11-20T20:07:36.580Z,6.79
2022-11-20T20:10:06.706Z,6.85
2022-11-20T20:12:34.698Z,6.90
2022-11-20T20:15:02.461Z,6.91
2022-11-20T20:17:30.317Z,6.99
2022-11-20T20:19:58.099Z,7.02
2022-11-20T20:22:25.936Z,7.01
2022-11-20T20:24:53.711Z,7.02
2022-11-20T20:27:22.911Z,7.02
2022-11-20T20:29:50.671Z,7.03
2022-11-20T20:32:18.451Z,7.06
2022-11-20T20:34:46.308Z,7.06
2022-11-20T20:37:14.434Z,7.06
2022-11-20T20:39:42.349Z,7.13
2022-11-20T20:42:10.534Z,7.14
2022-11-20T20:44:57.275Z,7.15
2022-11-20T20:47:25.071Z,7.15
2022-11-20T20:49:52.927Z,7.16
2022-11-20T20:52:21.196Z,7.20
2022-11-20T20:54:48.948Z,7.21
2022-11-20T20:57:17.136Z,7.20
2022-11-20T20:59:46.682Z,7.18
2022-11-20T21:02:14.483Z,7.31
2022-11-20T21:04:42.414Z,7.28
2022-11-20T21:07:10.829Z,7.26
2022-11-20T21:09:38.865Z,7.27
2022-11-20T21:12:07.090Z,7.25
2022-11-20T21:14:35.600Z,7.19
2022-11-20T21:17:04.833Z,7.22
2022-11-20T21:19:33.346Z,7.19
2022-11-20T21:22:00.163Z,7.17
2022-11-20T21:24:28.696Z,7.16
2022-11-20T21:26:57.922Z,7.14
2022-11-20T21:29:27.194Z,7.12
2022-11-20T21:31:55.900Z,7.12
2022-11-20T21:34:26.183Z,7.09
2022-11-20T21:36:54.200Z,7.01
2022-11-20T21:39:22.850Z,6.99
2022-11-20T21:41:50.827Z,6.99
2022-11-20T21:44:34.346Z,6.96
2022-11-20T21:47:02.752Z,6.99
2022-11-20T21:49:32.078Z,7.00
2022-11-20T21:52:00.297Z,6.91
2022-11-20T21:54:28.071Z,6.90
2022-11-20T21:56:55.979Z,6.87
2022-11-20T21:59:24.403Z,6.88
2022-11-20T22:01:52.337Z,6.86
2022-11-20T22:04:21.806Z,6.86
2022-11-20T22:06:51.140Z,6.86
2022-11-20T22:09:19.002Z,6.83
2022-11-20T22:11:46.773Z,6.82
2022-11-20T22:14:24.490Z,6.79
2022-11-20T22:16:55.029Z,6.76
2022-11-20T22:19:24.314Z,6.78
2022-11-20T22:21:53.436Z,6.85
2022-11-20T22:24:23.302Z,6.79
2022-11-20T22:26:51.869Z,6.79
2022-11-20T22:29:21.950Z,6.80
2022-11-20T22:31:53.078Z,6.80
2022-11-20T22:34:21.452Z,6.78
2022-11-20T22:36:49.504Z,6.80
2022-11-20T22:39:18.839Z,6.78
2022-11-20T22:41:46.593Z,6.78
2022-11-20T22:44:16.319Z,6.79
2022-11-20T22:46:44.608Z,6.79
2022-11-20T22:49:12.399Z,6.83
2022-11-20T22:51:41.758Z,6.87
2022-11-20T22:54:12.416Z,6.85
2022-11-20T22:56:42.164Z,6.87
2022-11-20T22:59:10.326Z,6.86
2022-11-20T23:01:39.136Z,6.82
2022-11-20T23:04:10.671Z,6.84
2022-11-20T23:06:38.734Z,6.82
2022-11-20T23:09:07.476Z,6.84
2022-11-20T23:11:36.133Z,6.80
2022-11-20T23:14:07.365Z,6.74
2022-11-20T23:16:35.907Z,6.75
2022-11-20T23:19:07.210Z,6.75
2022-11-20T23:21:36.666Z,6.68
2022-11-20T23:24:05.235Z,6.67
2022-11-20T23:26:35.474Z,6.68
2022-11-20T23:29:05.254Z,6.64
2022-11-20T23:31:34.874Z,6.63
2022-11-20T23:34:02.883Z,6.64
2022-11-20T23:36:30.777Z,6.63
2022-11-20T23:38:58.609Z,6.63
2022-11-20T23:41:27.030Z,6.63
2022-11-20T23:43:54.955Z,6.63
2022-11-20T23:46:24.130Z,6.56
2022-11-20T23:48:51.914Z,6.60
2022-11-20T23:51:19.903Z,6.59
2022-11-20T23:53:47.673Z,6.60
2022-11-20T23:56:15.696Z,6.59
2022-11-20T23:58:43.831Z,6.67
